Time;durP1;ratioP1;P1;durP2;ratioP2;P2;SDS_P1;SDS_P2;PMS_P1;PMS_P2;Temp;Humidity;BMP_temperature;BMP_pressure;BME280_temperature;BME280_humidity;BME280_pressure;Samples;Min_cycle;Max_cycle;Signal;HPM_P1;HPM_P2
2021/04/26 00:00:43;;;;;;;24.30;13.82;;;;;;;;;;5094887;28;20586;-66
2021/04/26 00:03:09;;;;;;;22.65;12.70;;;;;;;;;;5112212;28;20036;-66
2021/04/26 00:05:35;;;;;;;28.20;14.60;;;;;;;;;;5113214;28;20016;-67
2021/04/26 00:08:01;;;;;;;28.02;15.63;;;;;;;;;;5106648;28;20115;-67
2021/04/26 00:10:27;;;;;;;28.45;15.23;;;;;;;;;;5092506;28;20048;-67
2021/04/26 00:12:54;;;;;;;28.02;14.18;;;;;;;;;;5096569;28;20038;-67
2021/04/26 00:15:29;;;;;;;22.50;13.18;;;;;;;;;;5109665;28;20031;-68
2021/04/26 00:17:56;;;;;;;28.33;13.93;;;;;;;;;;5108921;28;20020;-65
2021/04/26 00:20:24;;;;;;;24.10;13.15;;;;;;;;;;5092766;28;20490;-67
2021/04/26 00:22:50;;;;;;;23.38;12.77;;;;;;;;;;5094475;28;20028;-68
2021/04/26 00:25:16;;;;;;;29.83;13.43;;;;;;;;;;5112853;28;20035;-68
2021/04/26 00:27:42;;;;;;;24.92;12.50;;;;;;;;;;5112036;28;20034;-66
2021/04/26 00:30:13;;;;;;;25.80;12.88;;;;;;;;;;5092573;28;20028;-67
2021/04/26 00:32:39;;;;;;;22.23;12.40;;;;;;;;;;5092549;28;20032;-67
2021/04/26 00:35:06;;;;;;;21.95;11.98;;;;;;;;;;5116631;28;20135;-66
2021/04/26 00:37:32;;;;;;;23.85;13.27;;;;;;;;;;5116916;28;20027;-67
2021/04/26 00:39:58;;;;;;;25.67;12.60;;;;;;;;;;5097390;28;20020;-67
2021/04/26 00:42:24;;;;;;;20.55;11.30;;;;;;;;;;5096488;28;20031;-68
2021/04/26 00:44:51;;;;;;;21.38;12.15;;;;;;;;;;5114361;28;20106;-67
2021/04/26 00:47:17;;;;;;;23.40;12.90;;;;;;;;;;5116822;28;20482;-67
2021/04/26 00:49:43;;;;;;;23.48;13.05;;;;;;;;;;5115035;28;20027;-66
2021/04/26 00:52:09;;;;;;;24.83;13.15;;;;;;;;;;5116562;28;20028;-68
2021/04/26 00:54:35;;;;;;;28.63;12.43;;;;;;;;;;5101358;28;20485;-66
2021/04/26 00:57:01;;;;;;;22.08;12.70;;;;;;;;;;5096189;28;20028;-67
2021/04/26 00:59:28;;;;;;;27.67;12.43;;;;;;;;;;5109445;28;20024;-67
2021/04/26 01:01:54;;;;;;;23.20;12.38;;;;;;;;;;5116514;28;20526;-68
2021/04/26 01:04:20;;;;;;;22.08;12.23;;;;;;;;;;5104751;28;20048;-69
2021/04/26 01:06:46;;;;;;;21.45;11.80;;;;;;;;;;5095829;28;20036;-68
2021/04/26 01:09:12;;;;;;;23.35;13.77;;;;;;;;;;5105229;28;20020;-66
2021/04/26 01:11:51;;;;;;;18.13;12.00;;;;;;;;;;5116400;28;20103;-67
2021/04/26 01:14:20;;;;;;;24.50;11.93;;;;;;;;;;5105745;28;20072;-68
2021/04/26 01:16:50;;;;;;;22.33;11.48;;;;;;;;;;5110239;28;20474;-68
2021/04/26 01:19:28;;;;;;;21.23;10.13;;;;;;;;;;5106604;28;20024;-69
2021/04/26 01:22:13;;;;;;;23.08;10.90;;;;;;;;;;5095656;28;20095;-68
2021/04/26 01:24:45;;;;;;;25.17;11.68;;;;;;;;;;5096877;28;20107;-68
2021/04/26 01:27:34;;;;;;;19.48;10.98;;;;;;;;;;5106155;28;20074;-67
2021/04/26 01:30:10;;;;;;;21.35;10.88;;;;;;;;;;5103005;28;20039;-67
2021/04/26 01:32:55;;;;;;;22.98;11.50;;;;;;;;;;5102157;28;20028;-67
2021/04/26 01:35:22;;;;;;;19.17;10.45;;;;;;;;;;5106357;28;20035;-67
2021/04/26 01:37:49;;;;;;;24.92;12.00;;;;;;;;;;5097592;28;20489;-68
2021/04/26 01:40:16;;;;;;;22.67;10.88;;;;;;;;;;5105795;28;20039;-68
2021/04/26 01:42:44;;;;;;;25.60;11.60;;;;;;;;;;5095391;28;20020;-68
2021/04/26 01:45:11;;;;;;;20.40;11.40;;;;;;;;;;5100784;28;20556;-66
2021/04/26 01:47:38;;;;;;;21.73;10.90;;;;;;;;;;5095332;28;20027;-68
2021/04/26 01:50:06;;;;;;;21.05;11.48;;;;;;;;;;5107690;28;20020;-69
2021/04/26 01:52:32;;;;;;;22.05;10.75;;;;;;;;;;5115612;28;20028;-68
2021/04/26 01:54:59;;;;;;;18.98;9.38;;;;;;;;;;5101428;28;20028;-68
2021/04/26 01:57:27;;;;;;;19.02;9.27;;;;;;;;;;5095186;28;20020;-67
2021/04/26 01:59:54;;;;;;;16.27;9.35;;;;;;;;;;5107975;28;20084;-67
2021/04/26 02:02:21;;;;;;;18.30;10.27;;;;;;;;;;5115452;28;20031;-68
2021/04/26 02:04:48;;;;;;;24.48;11.07;;;;;;;;;;5103718;28;20410;-68
2021/04/26 02:07:14;;;;;;;19.48;10.32;;;;;;;;;;5094952;28;20035;-67
2021/04/26 02:09:41;;;;;;;20.58;9.13;;;;;;;;;;5104771;28;20047;-69
2021/04/26 02:12:08;;;;;;;17.58;9.52;;;;;;;;;;5115312;28;20363;-67
2021/04/26 02:14:35;;;;;;;24.85;11.85;;;;;;;;;;5106916;28;20035;-68
2021/04/26 02:17:02;;;;;;;18.88;9.05;;;;;;;;;;5107440;28;20040;-68
2021/04/26 02:19:28;;;;;;;19.00;10.63;;;;;;;;;;5107524;28;20024;-69
2021/04/26 02:21:55;;;;;;;21.15;10.10;;;;;;;;;;5094704;28;20103;-67
2021/04/26 02:24:21;;;;;;;18.95;10.20;;;;;;;;;;5099840;28;20066;-68
2021/04/26 02:26:47;;;;;;;24.75;10.35;;;;;;;;;;5114971;28;20024;-67
2021/04/26 02:29:13;;;;;;;21.85;12.20;;;;;;;;;;5110255;28;20024;-67
2021/04/26 02:31:39;;;;;;;15.73;9.02;;;;;;;;;;5094394;28;20028;-67
2021/04/26 02:34:20;;;;;;;19.88;9.05;;;;;;;;;;5096649;28;20055;-67
2021/04/26 02:36:49;;;;;;;17.30;8.88;;;;;;;;;;5114787;28;20098;-69
2021/04/26 02:39:16;;;;;;;16.63;8.48;;;;;;;;;;5092469;28;20076;-65
2021/04/26 02:41:43;;;;;;;18.30;8.02;;;;;;;;;;5114306;28;20359;-68
2021/04/26 02:44:15;;;;;;;13.20;8.48;;;;;;;;;;5114417;28;20489;-68
2021/04/26 02:46:41;;;;;;;15.52;8.13;;;;;;;;;;5114472;28;20493;-68
2021/04/26 02:49:08;;;;;;;15.95;8.23;;;;;;;;;;5094443;28;20551;-66
2021/04/26 02:51:35;;;;;;;17.90;8.65;;;;;;;;;;5096127;28;20032;-68
2021/04/26 02:54:02;;;;;;;21.02;10.48;;;;;;;;;;5107901;28;20031;-67
2021/04/26 02:56:28;;;;;;;16.38;8.93;;;;;;;;;;5093758;28;20483;-68
2021/04/26 02:58:56;;;;;;;16.27;8.63;;;;;;;;;;5098304;28;20024;-67
2021/04/26 03:01:22;;;;;;;17.83;9.00;;;;;;;;;;5110830;28;20070;-67
2021/04/26 03:03:49;;;;;;;16.60;9.02;;;;;;;;;;5114157;28;20036;-67
2021/04/26 03:06:16;;;;;;;17.30;9.52;;;;;;;;;;5111582;28;20027;-67
2021/04/26 03:08:42;;;;;;;17.88;9.88;;;;;;;;;;5093808;28;20028;-68
2021/04/26 03:11:10;;;;;;;21.33;11.70;;;;;;;;;;5096732;28;20444;-68
2021/04/26 03:13:36;;;;;;;22.05;10.93;;;;;;;;;;5093419;28;20028;-68
2021/04/26 03:16:03;;;;;;;18.00;9.35;;;;;;;;;;5105451;28;20424;-68
2021/04/26 03:18:29;;;;;;;21.65;10.48;;;;;;;;;;5097719;28;20103;-67
2021/04/26 03:20:59;;;;;;;21.90;9.68;;;;;;;;;;5103537;28;20028;-68
2021/04/26 03:23:26;;;;;;;19.95;9.85;;;;;;;;;;5113789;28;20470;-68
2021/04/26 03:25:56;;;;;;;19.05;9.85;;;;;;;;;;5112891;28;20027;-67
2021/04/26 03:28:22;;;;;;;19.52;11.18;;;;;;;;;;5111607;28;20069;-69
2021/04/26 03:30:48;;;;;;;23.63;10.77;;;;;;;;;;5093350;28;20036;-68
2021/04/26 03:33:15;;;;;;;21.45;10.48;;;;;;;;;;5093137;28;20148;-68
2021/04/26 03:35:42;;;;;;;19.33;10.88;;;;;;;;;;5113439;28;20020;-68
2021/04/26 03:38:08;;;;;;;22.08;11.20;;;;;;;;;;5113509;28;20024;-67
2021/04/26 03:40:34;;;;;;;25.13;11.93;;;;;;;;;;5094162;28;20028;-68
2021/04/26 03:43:02;;;;;;;21.88;9.93;;;;;;;;;;5092997;28;20032;-68
2021/04/26 03:45:29;;;;;;;16.80;10.45;;;;;;;;;;5110535;28;20043;-69
2021/04/26 03:47:55;;;;;;;21.50;9.73;;;;;;;;;;5113307;28;20032;-67
2021/04/26 03:50:22;;;;;;;17.15;9.85;;;;;;;;;;5095203;28;20036;-68
2021/04/26 03:52:48;;;;;;;20.83;10.38;;;;;;;;;;5092847;28;20028;-67
2021/04/26 03:55:16;;;;;;;18.73;9.50;;;;;;;;;;5108912;28;20114;-67
2021/04/26 03:57:42;;;;;;;17.20;9.40;;;;;;;;;;5113122;28;20016;-66
2021/04/26 04:00:10;;;;;;;18.00;9.13;;;;;;;;;;5096978;28;20501;-67
2021/04/26 04:02:36;;;;;;;19.02;10.98;;;;;;;;;;5092821;28;20077;-67
2021/04/26 04:05:02;;;;;;;17.30;8.93;;;;;;;;;;5106964;28;20063;-67
2021/04/26 04:07:28;;;;;;;22.83;9.82;;;;;;;;;;5112850;28;20107;-68
2021/04/26 04:09:54;;;;;;;21.73;9.30;;;;;;;;;;5099398;28;20488;-67
2021/04/26 04:12:20;;;;;;;19.25;8.88;;;;;;;;;;5092490;28;20483;-69
2021/04/26 04:14:46;;;;;;;17.55;10.13;;;;;;;;;;5103372;28;20042;-67
2021/04/26 04:17:13;;;;;;;14.90;8.63;;;;;;;;;;5112916;28;20065;-69
2021/04/26 04:19:39;;;;;;;18.13;9.52;;;;;;;;;;5102995;28;20506;-67
2021/04/26 04:22:05;;;;;;;18.60;9.77;;;;;;;;;;5106027;28;20119;-67
2021/04/26 04:24:31;;;;;;;16.13;9.38;;;;;;;;;;5112841;28;20023;-65
2021/04/26 04:26:57;;;;;;;18.42;9.38;;;;;;;;;;5112745;28;20114;-66
2021/04/26 04:29:23;;;;;;;21.65;9.45;;;;;;;;;;5112980;28;20076;-65
2021/04/26 04:31:49;;;;;;;20.77;9.95;;;;;;;;;;5111136;28;20047;-68
2021/04/26 04:34:15;;;;;;;18.63;9.07;;;;;;;;;;5112651;28;20028;-67
2021/04/26 04:36:41;;;;;;;16.10;8.82;;;;;;;;;;5105722;28;20142;-67
2021/04/26 04:39:07;;;;;;;17.45;10.00;;;;;;;;;;5074269;28;20035;-67
2021/04/26 04:41:34;;;;;;;21.52;8.85;;;;;;;;;;5097121;28;20015;-68
2021/04/26 04:44:00;;;;;;;19.50;10.10;;;;;;;;;;5112684;28;20470;-68
2021/04/26 04:46:26;;;;;;;21.60;9.38;;;;;;;;;;5111003;28;20031;-67
2021/04/26 04:48:52;;;;;;;24.20;10.77;;;;;;;;;;5112689;28;20541;-68
2021/04/26 04:51:19;;;;;;;17.40;8.82;;;;;;;;;;5110533;28;20375;-68
2021/04/26 04:53:45;;;;;;;15.00;9.40;;;;;;;;;;5092113;28;20028;-67
2021/04/26 04:56:11;;;;;;;19.63;9.98;;;;;;;;;;5092155;28;20554;-67
2021/04/26 04:58:37;;;;;;;15.00;7.85;;;;;;;;;;5112550;28;20103;-67
2021/04/26 05:01:03;;;;;;;16.25;8.63;;;;;;;;;;5112607;28;20031;-67
2021/04/26 05:03:29;;;;;;;18.80;10.48;;;;;;;;;;5092992;28;20020;-68
2021/04/26 05:05:56;;;;;;;16.90;8.70;;;;;;;;;;5092134;28;20028;-68
2021/04/26 05:08:22;;;;;;;18.70;8.07;;;;;;;;;;5109442;28;20042;-67
2021/04/26 05:10:48;;;;;;;17.13;8.63;;;;;;;;;;5112518;28;20432;-68
2021/04/26 05:13:15;;;;;;;17.65;9.38;;;;;;;;;;5095933;28;20032;-68
2021/04/26 05:15:41;;;;;;;16.25;8.80;;;;;;;;;;5092367;28;20508;-68
2021/04/26 05:18:08;;;;;;;16.23;9.02;;;;;;;;;;5106231;28;20517;-67
2021/04/26 05:20:34;;;;;;;13.57;8.30;;;;;;;;;;5094722;28;20390;-68
2021/04/26 05:23:00;;;;;;;13.93;8.30;;;;;;;;;;5108614;28;20081;-68
2021/04/26 05:25:26;;;;;;;18.15;7.63;;;;;;;;;;5098784;28;20035;-67
2021/04/26 05:27:53;;;;;;;17.40;8.40;;;;;;;;;;5107254;28;20027;-67
2021/04/26 05:30:19;;;;;;;16.88;8.43;;;;;;;;;;5116037;28;20468;-66
2021/04/26 05:32:45;;;;;;;13.68;8.32;;;;;;;;;;5105821;28;20024;-66
2021/04/26 05:35:11;;;;;;;19.23;9.32;;;;;;;;;;5095665;28;20016;-67
2021/04/26 05:37:37;;;;;;;14.85;8.32;;;;;;;;;;5103625;28;20077;-66
2021/04/26 05:40:04;;;;;;;17.88;9.07;;;;;;;;;;5115882;28;20047;-66
2021/04/26 05:42:30;;;;;;;16.60;8.50;;;;;;;;;;5108673;28;20028;-67
2021/04/26 05:44:56;;;;;;;18.10;10.00;;;;;;;;;;5095411;28;20020;-67
2021/04/26 05:47:22;;;;;;;18.85;8.65;;;;;;;;;;5101093;28;20080;-68
2021/04/26 05:49:48;;;;;;;18.83;9.02;;;;;;;;;;5102028;28;20024;-67
2021/04/26 05:52:14;;;;;;;20.75;10.52;;;;;;;;;;5099254;28;20023;-68
2021/04/26 05:54:41;;;;;;;17.70;9.65;;;;;;;;;;5115583;28;20023;-67
2021/04/26 05:57:07;;;;;;;17.20;9.50;;;;;;;;;;5111619;28;20103;-67
2021/04/26 05:59:33;;;;;;;17.98;10.57;;;;;;;;;;5095155;28;20031;-67
2021/04/26 06:01:59;;;;;;;22.77;10.00;;;;;;;;;;5105822;28;20020;-67
2021/04/26 06:04:25;;;;;;;17.98;9.57;;;;;;;;;;5103749;28;20080;-68
2021/04/26 06:06:51;;;;;;;19.83;8.90;;;;;;;;;;5108797;28;20024;-66
2021/04/26 06:09:17;;;;;;;17.02;9.15;;;;;;;;;;5110849;28;20032;-68
2021/04/26 06:11:44;;;;;;;16.88;8.45;;;;;;;;;;5078295;28;20073;-69
2021/04/26 06:14:10;;;;;;;19.08;9.63;;;;;;;;;;5099463;28;20024;-70
2021/04/26 06:16:37;;;;;;;16.42;9.07;;;;;;;;;;5099386;28;20024;-69
2021/04/26 06:19:03;;;;;;;13.57;8.95;;;;;;;;;;5109184;28;20520;-67
2021/04/26 06:21:30;;;;;;;18.50;9.70;;;;;;;;;;5100268;28;20024;-69
2021/04/26 06:23:56;;;;;;;17.73;10.07;;;;;;;;;;5106255;28;20024;-66
2021/04/26 06:26:22;;;;;;;18.92;9.55;;;;;;;;;;5106023;28;20039;-68
2021/04/26 06:28:48;;;;;;;16.13;8.80;;;;;;;;;;5113715;28;20028;-67
2021/04/26 06:31:14;;;;;;;17.25;10.32;;;;;;;;;;5107327;28;20036;-68
2021/04/26 06:33:41;;;;;;;17.02;9.85;;;;;;;;;;5094235;28;20025;-67
2021/04/26 06:36:07;;;;;;;18.75;9.35;;;;;;;;;;5112461;28;20114;-67
2021/04/26 06:38:33;;;;;;;15.50;9.00;;;;;;;;;;5099687;28;20028;-68
2021/04/26 06:40:59;;;;;;;17.52;9.55;;;;;;;;;;5113421;28;20459;-67
2021/04/26 06:43:25;;;;;;;18.83;9.38;;;;;;;;;;5113687;28;20028;-67
2021/04/26 06:45:51;;;;;;;17.73;10.20;;;;;;;;;;5106890;28;20024;-67
2021/04/26 06:48:18;;;;;;;17.15;10.27;;;;;;;;;;5094664;28;20028;-67
2021/04/26 06:50:45;;;;;;;14.80;9.18;;;;;;;;;;5114467;28;20019;-67
2021/04/26 06:53:11;;;;;;;20.13;10.00;;;;;;;;;;5114142;28;20471;-67
2021/04/26 06:55:37;;;;;;;18.42;9.52;;;;;;;;;;5094234;28;20035;-67
2021/04/26 06:58:03;;;;;;;15.85;8.85;;;;;;;;;;5093837;28;20020;-68
2021/04/26 07:00:30;;;;;;;20.23;9.88;;;;;;;;;;5100005;28;20059;-70
2021/04/26 07:02:56;;;;;;;16.83;9.35;;;;;;;;;;5103168;28;20020;-70
2021/04/26 07:05:23;;;;;;;20.48;9.68;;;;;;;;;;5100937;28;20055;-69
2021/04/26 07:07:49;;;;;;;19.95;9.90;;;;;;;;;;5100848;28;20688;-70
2021/04/26 07:10:15;;;;;;;22.75;10.57;;;;;;;;;;5107763;28;20051;-71
2021/04/26 07:12:41;;;;;;;18.92;9.48;;;;;;;;;;5102213;28;20123;-69
2021/04/26 07:15:09;;;;;;;21.20;10.13;;;;;;;;;;5099050;28;20490;-66
2021/04/26 07:17:35;;;;;;;20.60;10.65;;;;;;;;;;5106405;28;20032;-71
2021/04/26 07:20:02;;;;;;;19.75;9.90;;;;;;;;;;5098203;28;20034;-69
2021/04/26 07:22:28;;;;;;;19.23;10.40;;;;;;;;;;5099449;28;20039;-70
2021/04/26 07:24:54;;;;;;;19.98;9.65;;;;;;;;;;5099819;28;20022;-71
2021/04/26 07:27:20;;;;;;;28.10;12.57;;;;;;;;;;5097104;28;20068;-67
2021/04/26 07:29:46;;;;;;;23.77;13.98;;;;;;;;;;5102523;28;20028;-70
2021/04/26 07:32:13;;;;;;;17.33;10.95;;;;;;;;;;5099465;28;20517;-70
2021/04/26 07:34:39;;;;;;;19.30;10.85;;;;;;;;;;5098852;28;20123;-69
2021/04/26 07:37:05;;;;;;;27.85;12.45;;;;;;;;;;5079318;28;20478;-67
2021/04/26 07:39:31;;;;;;;22.85;10.32;;;;;;;;;;5102231;28;20148;-70
2021/04/26 07:42:00;;;;;;;21.45;8.98;;;;;;;;;;5098025;28;20375;-68
2021/04/26 07:44:27;;;;;;;22.20;10.00;;;;;;;;;;5079000;28;20027;-67
2021/04/26 07:46:53;;;;;;;18.90;9.68;;;;;;;;;;5105355;28;20099;-71
2021/04/26 07:49:20;;;;;;;16.13;8.73;;;;;;;;;;5104545;28;20084;-70
2021/04/26 07:51:46;;;;;;;20.73;8.65;;;;;;;;;;5098632;28;20038;-71
2021/04/26 07:54:12;;;;;;;19.00;8.73;;;;;;;;;;5104821;28;20508;-71
2021/04/26 07:56:38;;;;;;;16.77;8.60;;;;;;;;;;5100691;28;20053;-70
2021/04/26 07:59:04;;;;;;;18.77;8.95;;;;;;;;;;5097111;28;20743;-70
2021/04/26 08:01:30;;;;;;;17.65;9.45;;;;;;;;;;5100084;28;20035;-72
2021/04/26 08:03:56;;;;;;;16.83;9.32;;;;;;;;;;5100856;28;20042;-72
2021/04/26 08:06:22;;;;;;;15.75;9.32;;;;;;;;;;5099037;28;20036;-70
2021/04/26 08:08:49;;;;;;;17.02;8.45;;;;;;;;;;5099430;28;20034;-70
2021/04/26 08:11:15;;;;;;;15.48;7.75;;;;;;;;;;5100979;28;20055;-68
2021/04/26 08:13:41;;;;;;;16.02;8.10;;;;;;;;;;5100810;28;20544;-68
2021/04/26 08:16:07;;;;;;;20.95;9.07;;;;;;;;;;5106835;28;20483;-68
2021/04/26 08:18:33;;;;;;;17.88;8.70;;;;;;;;;;5093271;28;20032;-68
2021/04/26 08:21:00;;;;;;;19.75;8.07;;;;;;;;;;5096106;28;20023;-63
2021/04/26 08:23:26;;;;;;;15.45;7.60;;;;;;;;;;5101323;28;20515;-71
2021/04/26 08:25:52;;;;;;;17.55;7.90;;;;;;;;;;5103314;28;20103;-70
2021/04/26 08:28:19;;;;;;;23.10;7.20;;;;;;;;;;5097168;28;20127;-69
2021/04/26 08:30:49;;;;;;;21.35;8.40;;;;;;;;;;5098982;28;20027;-70
2021/04/26 08:33:15;;;;;;;16.65;6.95;;;;;;;;;;5100763;28;20565;-69
2021/04/26 08:35:41;;;;;;;12.98;6.32;;;;;;;;;;5101979;28;20149;-68
2021/04/26 08:38:07;;;;;;;15.25;6.72;;;;;;;;;;5100366;28;20028;-70
2021/04/26 08:40:34;;;;;;;9.05;6.13;;;;;;;;;;5090245;28;20023;-66
2021/04/26 08:43:04;;;;;;;11.10;5.97;;;;;;;;;;5089965;28;20023;-68
2021/04/26 08:45:30;;;;;;;9.48;5.63;;;;;;;;;;5101571;28;20028;-68
2021/04/26 08:47:57;;;;;;;12.55;6.38;;;;;;;;;;5101224;28;20028;-69
2021/04/26 08:50:24;;;;;;;9.88;5.97;;;;;;;;;;5099450;28;20031;-68
2021/04/26 08:52:50;;;;;;;10.63;5.55;;;;;;;;;;5095393;28;20070;-69
2021/04/26 08:55:18;;;;;;;16.58;6.47;;;;;;;;;;5085454;28;20039;-70
2021/04/26 08:57:44;;;;;;;11.65;6.75;;;;;;;;;;5098353;28;20028;-70
2021/04/26 09:00:10;;;;;;;12.35;6.75;;;;;;;;;;5109110;28;20023;-68
2021/04/26 09:02:44;;;;;;;10.27;6.00;;;;;;;;;;5112917;28;20722;-68
2021/04/26 09:05:20;;;;;;;7.35;5.50;;;;;;;;;;5114437;28;20055;-67
2021/04/26 09:07:51;;;;;;;12.43;6.78;;;;;;;;;;5101469;28;20081;-67
2021/04/26 09:10:18;;;;;;;11.80;6.10;;;;;;;;;;5098870;28;20135;-67
2021/04/26 09:12:44;;;;;;;9.98;6.40;;;;;;;;;;5108558;28;20039;-67
2021/04/26 09:15:10;;;;;;;11.18;6.20;;;;;;;;;;5095881;28;20307;-66
2021/04/26 09:17:37;;;;;;;10.70;6.03;;;;;;;;;;5103721;28;20026;-66
2021/04/26 09:20:19;;;;;;;8.38;5.05;;;;;;;;;;5108457;28;20054;-67
2021/04/26 09:22:45;;;;;;;11.13;5.97;;;;;;;;;;5103759;28;20024;-67
2021/04/26 09:25:20;;;;;;;11.65;5.43;;;;;;;;;;5080294;28;20074;-68
2021/04/26 09:27:52;;;;;;;8.43;5.45;;;;;;;;;;5102909;28;20035;-68
2021/04/26 09:30:54;;;;;;;10.38;5.80;;;;;;;;;;5103749;28;20058;-66
2021/04/26 09:33:29;;;;;;;9.82;5.13;;;;;;;;;;4995060;28;20038;-66
2021/04/26 09:36:18;;;;;;;10.52;5.90;;;;;;;;;;5089959;28;20082;-67
2021/04/26 09:38:55;;;;;;;9.77;5.88;;;;;;;;;;5092595;28;20050;-67
2021/04/26 09:41:26;;;;;;;10.95;5.45;;;;;;;;;;5105339;28;20041;-67
2021/04/26 09:44:01;;;;;;;9.70;5.82;;;;;;;;;;5105112;28;20043;-66
2021/04/26 09:46:39;;;;;;;11.40;6.30;;;;;;;;;;5100829;28;20031;-69
2021/04/26 09:49:12;;;;;;;7.80;5.40;;;;;;;;;;5102084;28;20032;-67
2021/04/26 09:51:39;;;;;;;10.68;5.10;;;;;;;;;;5108898;28;20035;-69
2021/04/26 09:54:06;;;;;;;8.23;5.10;;;;;;;;;;5098675;28;20449;-69
2021/04/26 09:56:38;;;;;;;8.48;5.38;;;;;;;;;;5103631;28;20382;-69
2021/04/26 09:59:04;;;;;;;9.82;5.47;;;;;;;;;;5101065;28;20525;-69
2021/04/26 10:01:31;;;;;;;9.82;5.70;;;;;;;;;;5093070;28;20019;-69
2021/04/26 10:03:58;;;;;;;10.30;5.10;;;;;;;;;;5107655;28;20035;-68
2021/04/26 10:06:24;;;;;;;8.10;5.47;;;;;;;;;;5103014;28;20542;-67
2021/04/26 10:08:52;;;;;;;7.47;5.32;;;;;;;;;;5108055;28;20035;-68
2021/04/26 10:11:20;;;;;;;8.15;5.15;;;;;;;;;;5101594;28;20044;-67
2021/04/26 10:13:48;;;;;;;8.63;5.15;;;;;;;;;;5086734;28;20051;-67
2021/04/26 10:16:25;;;;;;;7.32;4.75;;;;;;;;;;5102312;28;20509;-67
2021/04/26 10:18:58;;;;;;;8.85;5.22;;;;;;;;;;5110972;28;20039;-68
2021/04/26 10:21:24;;;;;;;9.30;5.68;;;;;;;;;;5104351;28;20020;-68
2021/04/26 10:23:51;;;;;;;11.93;5.10;;;;;;;;;;5096967;28;20081;-68
2021/04/26 10:26:36;;;;;;;7.43;4.72;;;;;;;;;;5108307;28;20032;-67
2021/04/26 10:29:09;;;;;;;7.40;4.30;;;;;;;;;;5109367;28;20035;-67
2021/04/26 10:31:54;;;;;;;6.28;4.65;;;;;;;;;;5105699;28;20084;-68
2021/04/26 10:34:20;;;;;;;7.70;4.83;;;;;;;;;;5099833;28;20031;-66
2021/04/26 10:36:50;;;;;;;9.02;4.47;;;;;;;;;;5098905;28;20278;-66
2021/04/26 10:39:20;;;;;;;7.25;4.68;;;;;;;;;;5103708;28;20528;-67
2021/04/26 10:41:50;;;;;;;8.98;5.13;;;;;;;;;;5095762;28;20776;-69
2021/04/26 10:44:16;;;;;;;9.75;5.25;;;;;;;;;;5105357;28;20027;-67
2021/04/26 10:46:42;;;;;;;7.47;4.85;;;;;;;;;;5103496;28;20118;-68
2021/04/26 10:49:08;;;;;;;7.85;5.63;;;;;;;;;;5107717;28;20038;-68
2021/04/26 10:51:38;;;;;;;9.43;5.75;;;;;;;;;;5101575;28;20027;-66
2021/04/26 10:54:05;;;;;;;7.38;4.85;;;;;;;;;;5099808;28;20019;-66
2021/04/26 10:56:33;;;;;;;10.30;5.00;;;;;;;;;;5098592;28;20020;-65
2021/04/26 10:59:19;;;;;;;8.23;5.65;;;;;;;;;;5101449;28;21003;-68
2021/04/26 11:01:46;;;;;;;8.38;5.30;;;;;;;;;;5093570;28;20039;-65
2021/04/26 11:04:12;;;;;;;15.02;5.93;;;;;;;;;;5100965;28;20390;-65
2021/04/26 11:06:38;;;;;;;7.80;5.10;;;;;;;;;;5102532;28;20050;-67
2021/04/26 11:09:14;;;;;;;8.63;5.15;;;;;;;;;;5095196;28;20133;-66
2021/04/26 11:11:56;;;;;;;7.85;5.05;;;;;;;;;;5101151;28;20039;-68
2021/04/26 11:14:23;;;;;;;9.60;6.88;;;;;;;;;;5098144;28;20036;-66
2021/04/26 11:16:52;;;;;;;7.38;4.60;;;;;;;;;;5094383;28;20043;-67
2021/04/26 11:19:19;;;;;;;7.25;4.85;;;;;;;;;;5096644;28;20063;-67
2021/04/26 11:21:47;;;;;;;8.15;5.05;;;;;;;;;;5099784;28;20031;-67
2021/04/26 11:24:33;;;;;;;8.43;5.38;;;;;;;;;;5095949;28;20561;-66
2021/04/26 11:27:13;;;;;;;7.82;5.03;;;;;;;;;;5095764;28;20028;-66
2021/04/26 11:29:41;;;;;;;9.13;5.10;;;;;;;;;;5099457;28;20634;-66
2021/04/26 11:32:09;;;;;;;8.55;5.32;;;;;;;;;;5093985;28;20035;-65
2021/04/26 11:34:44;;;;;;;9.18;4.90;;;;;;;;;;5094973;28;20031;-66
2021/04/26 11:37:10;;;;;;;8.52;6.03;;;;;;;;;;5101871;28;20059;-65
2021/04/26 11:39:37;;;;;;;9.02;5.93;;;;;;;;;;5092538;28;20035;-67
2021/04/26 11:42:04;;;;;;;7.70;5.57;;;;;;;;;;5092947;28;20431;-66
2021/04/26 11:44:32;;;;;;;7.63;5.13;;;;;;;;;;5091983;28;20024;-65
2021/04/26 11:47:27;;;;;;;9.60;6.20;;;;;;;;;;5092440;28;20053;-67
2021/04/26 11:49:54;;;;;;;8.52;4.95;;;;;;;;;;5081263;28;20035;-64
2021/04/26 11:52:20;;;;;;;7.25;5.10;;;;;;;;;;5094910;28;20028;-69
2021/04/26 11:54:51;;;;;;;8.35;4.57;;;;;;;;;;5093546;28;20039;-67
2021/04/26 11:57:22;;;;;;;7.30;5.20;;;;;;;;;;5093709;28;20023;-67
2021/04/26 11:59:50;;;;;;;9.40;5.38;;;;;;;;;;5095060;28;20038;-68
2021/04/26 12:02:29;;;;;;;7.55;5.10;;;;;;;;;;5090385;28;20027;-67
2021/04/26 12:04:59;;;;;;;9.43;4.93;;;;;;;;;;5091891;28;20497;-66
2021/04/26 12:07:26;;;;;;;7.40;5.45;;;;;;;;;;5092617;28;20152;-67
2021/04/26 12:09:56;;;;;;;7.22;4.55;;;;;;;;;;5097377;28;20048;-66
2021/04/26 12:12:22;;;;;;;7.90;5.25;;;;;;;;;;5094874;28;20032;-67
2021/04/26 12:14:53;;;;;;;7.82;5.53;;;;;;;;;;5089499;28;20036;-68
2021/04/26 12:17:25;;;;;;;9.73;5.72;;;;;;;;;;5088903;28;20433;-67
2021/04/26 12:19:52;;;;;;;8.65;5.10;;;;;;;;;;5098682;28;20024;-66
2021/04/26 12:22:22;;;;;;;7.43;4.95;;;;;;;;;;5098619;28;20029;-67
2021/04/26 12:24:55;;;;;;;6.40;4.38;;;;;;;;;;5099578;28;20118;-68
2021/04/26 12:27:26;;;;;;;7.53;4.50;;;;;;;;;;5103472;28;20032;-67
2021/04/26 12:29:52;;;;;;;9.00;4.60;;;;;;;;;;5091416;28;20506;-68
2021/04/26 12:32:19;;;;;;;10.75;5.22;;;;;;;;;;5093070;28;20564;-67
2021/04/26 12:34:51;;;;;;;6.65;4.95;;;;;;;;;;5099252;28;20738;-68
2021/04/26 12:37:18;;;;;;;9.93;5.25;;;;;;;;;;5092449;28;20035;-67
2021/04/26 12:39:44;;;;;;;7.88;4.97;;;;;;;;;;5095183;28;20024;-68
2021/04/26 12:42:15;;;;;;;9.02;4.90;;;;;;;;;;5089921;28;20085;-68
2021/04/26 12:44:42;;;;;;;6.93;5.28;;;;;;;;;;5103857;28;20023;-68
2021/04/26 12:47:17;;;;;;;6.57;4.72;;;;;;;;;;5100555;28;20020;-67
2021/04/26 12:49:43;;;;;;;;;;;;;;;;;;5100360;28;20483;-67
2021/04/26 12:52:13;;;;;;;9.23;4.80;;;;;;;;;;5102119;28;19923;-67
2021/04/26 12:54:58;;;;;;;9.23;5.18;;;;;;;;;;5102436;28;20035;-68
2021/04/26 12:57:24;;;;;;;6.60;4.50;;;;;;;;;;5093249;28;20035;-69
2021/04/26 12:59:51;;;;;;;9.70;5.00;;;;;;;;;;5095296;28;20016;-68
2021/04/26 13:02:24;;;;;;;7.45;4.70;;;;;;;;;;5098443;28;20024;-68
2021/04/26 13:04:54;;;;;;;6.38;5.00;;;;;;;;;;5093555;28;20433;-66
2021/04/26 13:07:20;;;;;;;7.00;5.00;;;;;;;;;;5096757;28;20064;-67
2021/04/26 13:09:46;;;;;;;7.57;5.00;;;;;;;;;;5089883;28;20101;-68
2021/04/26 13:12:13;;;;;;;8.88;5.30;;;;;;;;;;5099287;28;20035;-69
2021/04/26 13:14:39;;;;;;;8.85;5.43;;;;;;;;;;5100935;28;20070;-69
2021/04/26 13:17:09;;;;;;;8.90;5.20;;;;;;;;;;5100639;28;20020;-69
2021/04/26 13:19:36;;;;;;;7.63;4.63;;;;;;;;;;5091763;28;20028;-69
2021/04/26 13:22:03;;;;;;;7.97;4.75;;;;;;;;;;5100153;28;20047;-68
2021/04/26 13:24:33;;;;;;;6.28;4.75;;;;;;;;;;5098746;28;20077;-68
2021/04/26 13:27:01;;;;;;;4.80;4.00;;;;;;;;;;5092060;28;20034;-67
2021/04/26 13:29:28;;;;;;;6.38;4.72;;;;;;;;;;5090928;28;20418;-69
2021/04/26 13:31:55;;;;;;;4.97;4.00;;;;;;;;;;5092822;28;20112;-71
2021/04/26 13:34:22;;;;;;;6.60;3.67;;;;;;;;;;5094917;28;20109;-71
2021/04/26 13:36:48;;;;;;;5.15;3.80;;;;;;;;;;5099127;28;20441;-70
2021/04/26 13:39:16;;;;;;;6.20;3.80;;;;;;;;;;5095500;28;20451;-71
2021/04/26 13:41:43;;;;;;;7.28;4.05;;;;;;;;;;5098813;28;20027;-70
2021/04/26 13:44:09;;;;;;;5.07;3.92;;;;;;;;;;5105797;28;20036;-68
2021/04/26 13:46:36;;;;;;;5.53;3.80;;;;;;;;;;5095919;28;20038;-70
2021/04/26 13:49:03;;;;;;;7.75;4.55;;;;;;;;;;5105098;28;20114;-70
2021/04/26 13:51:29;;;;;;;6.55;4.00;;;;;;;;;;5107678;28;20036;-68
2021/04/26 13:53:55;;;;;;;7.70;4.85;;;;;;;;;;5103658;28;20139;-70
2021/04/26 13:56:21;;;;;;;5.65;4.22;;;;;;;;;;5101634;28;20513;-70
2021/04/26 13:58:48;;;;;;;6.50;5.00;;;;;;;;;;5104135;28;20508;-71
2021/04/26 14:01:14;;;;;;;7.63;5.00;;;;;;;;;;5098625;28;20111;-70
2021/04/26 14:03:42;;;;;;;5.93;4.55;;;;;;;;;;5095083;28;20039;-69
2021/04/26 14:06:08;;;;;;;5.70;4.78;;;;;;;;;;5093159;28;20050;-70
2021/04/26 14:08:34;;;;;;;7.63;4.78;;;;;;;;;;5102042;28;20347;-70
2021/04/26 14:11:00;;;;;;;7.78;4.55;;;;;;;;;;5102181;28;20071;-71
2021/04/26 14:13:27;;;;;;;7.10;4.72;;;;;;;;;;5106702;28;20039;-72
2021/04/26 14:15:53;;;;;;;5.57;4.70;;;;;;;;;;5109158;28;20028;-71
2021/04/26 14:18:19;;;;;;;7.18;4.68;;;;;;;;;;5104627;28;20060;-70
2021/04/26 14:20:46;;;;;;;7.00;4.70;;;;;;;;;;5106328;28;20490;-70
2021/04/26 14:23:12;;;;;;;5.68;4.28;;;;;;;;;;5105465;28;20073;-71
2021/04/26 14:25:39;;;;;;;5.43;4.07;;;;;;;;;;5101498;28;20027;-70
2021/04/26 14:28:05;;;;;;;5.88;4.00;;;;;;;;;;5107345;28;20024;-70
2021/04/26 14:30:31;;;;;;;6.00;5.40;;;;;;;;;;5102959;28;20024;-70
2021/04/26 14:32:57;;;;;;;6.03;4.55;;;;;;;;;;5090454;28;20066;-69
2021/04/26 14:35:23;;;;;;;7.63;4.25;;;;;;;;;;5109598;28;20546;-69